Time;durP1;ratioP1;P1;durP2;ratioP2;P2;SDS_P1;SDS_P2;PMS_P1;PMS_P2;Temp;Humidity;BMP_temperature;BMP_pressure;BME280_temperature;BME280_humidity;BME280_pressure;Samples;Min_cycle;Max_cycle;Signal;HPM_P1;HPM_P2
2021/09/09 00:00:20;;;;;;;13.80;12.60;;;15.90;99.90;;;16.79;86.26;97660.72;5264329;28;20202;-57
2021/09/09 00:02:54;;;;;;;13.32;12.10;;;15.90;99.90;;;16.76;86.56;97658.00;5269338;28;20216;-54
2021/09/09 00:05:28;;;;;;;13.75;12.40;;;15.80;99.90;;;16.70;85.94;97652.66;5266508;28;20585;-58
2021/09/09 00:08:01;;;;;;;13.82;12.50;;;15.80;99.90;;;16.69;85.91;97658.66;5260255;28;20683;-58
2021/09/09 00:10:34;;;;;;;13.77;12.65;;;15.80;99.90;;;16.63;86.37;97649.03;5265271;28;20206;-56
2021/09/09 00:13:07;;;;;;;14.73;13.43;;;15.80;99.90;;;16.61;86.65;97651.56;5266732;28;20497;-56
2021/09/09 00:15:40;;;;;;;13.80;12.60;;;15.80;99.90;;;16.63;86.49;97655.06;5268058;28;20203;-54
2021/09/09 00:18:15;;;;;;;14.05;12.77;;;15.80;99.90;;;16.71;87.36;97654.41;5266127;28;20564;-56
2021/09/09 00:20:48;;;;;;;14.05;12.75;;;15.80;99.90;;;16.73;87.03;97647.59;5266905;28;20205;-56
2021/09/09 00:23:21;;;;;;;14.13;12.80;;;15.90;99.90;;;16.74;87.37;97646.75;5270034;28;20227;-56
2021/09/09 00:25:54;;;;;;;13.38;12.27;;;15.90;99.90;;;16.76;87.08;97646.00;5266315;28;20200;-56
2021/09/09 00:28:27;;;;;;;13.88;12.77;;;16.00;99.90;;;16.79;87.61;97650.38;5265010;28;20585;-58
2021/09/09 00:31:00;;;;;;;13.55;12.35;;;16.00;99.90;;;16.80;87.31;97647.00;5266589;28;20208;-57
2021/09/09 00:33:34;;;;;;;13.05;11.95;;;16.00;99.90;;;16.81;87.55;97654.75;5266776;28;20237;-60
2021/09/09 00:36:07;;;;;;;13.80;12.60;;;16.00;99.90;;;16.80;87.15;97647.00;5278887;28;20207;-59
2021/09/09 00:38:40;;;;;;;13.57;12.38;;;15.90;99.90;;;16.82;86.66;97650.47;5267843;28;20192;-60
2021/09/09 00:41:13;;;;;;;12.88;11.77;;;15.90;99.90;;;16.79;86.06;97646.09;5266708;28;20657;-59
2021/09/09 00:43:46;;;;;;;13.05;11.85;;;15.80;99.90;;;16.78;85.23;97649.50;5278209;28;20284;-57
2021/09/09 00:46:23;;;;;;;12.27;11.27;;;15.80;99.90;;;16.71;86.13;97647.56;5268644;28;20219;-56
2021/09/09 00:48:57;;;;;;;11.80;10.90;;;15.80;99.90;;;16.71;85.13;97646.66;5276377;28;20275;-60
2021/09/09 00:51:30;;;;;;;12.65;11.57;;;15.80;99.90;;;16.70;85.96;97656.13;5269933;28;20223;-56
2021/09/09 00:54:03;;;;;;;12.65;11.52;;;15.70;99.90;;;16.69;85.78;97656.09;5284163;28;20215;-58
2021/09/09 00:56:36;;;;;;;12.90;11.70;;;15.70;99.90;;;16.70;84.94;97648.38;5274549;28;20549;-60
2021/09/09 00:59:09;;;;;;;12.23;11.32;;;15.70;99.90;;;16.71;85.16;97651.81;5263753;28;20192;-59
2021/09/09 01:01:42;;;;;;;12.43;11.23;;;15.70;99.90;;;16.65;85.56;97650.84;5269604;28;20589;-57
2021/09/09 01:04:19;;;;;;;12.38;11.38;;;15.70;99.90;;;16.61;85.20;97646.41;5268403;28;20211;-57
2021/09/09 01:06:54;;;;;;;12.68;11.48;;;15.60;99.90;;;16.66;85.38;97650.00;5268335;28;20191;-57
2021/09/09 01:09:27;;;;;;;13.18;12.07;;;15.60;99.90;;;16.61;85.70;97648.97;5270050;28;20203;-59
2021/09/09 01:12:00;;;;;;;12.80;11.70;;;15.70;99.90;;;16.56;86.01;97647.09;5269456;28;20220;-58
2021/09/09 01:14:33;;;;;;;13.20;12.05;;;15.60;99.90;;;16.53;85.68;97647.00;5274962;28;20238;-57
2021/09/09 01:17:06;;;;;;;13.02;11.90;;;15.60;99.90;;;16.38;86.06;97642.25;5269287;28;20564;-55
2021/09/09 01:19:41;;;;;;;12.13;11.02;;;15.40;99.90;;;16.36;86.42;97644.78;5269615;28;20566;-58
2021/09/09 01:22:14;;;;;;;14.02;12.90;;;15.40;99.90;;;16.39;87.08;97636.25;5271370;28;20211;-58
2021/09/09 01:24:49;;;;;;;13.35;12.25;;;15.50;99.90;;;16.38;86.92;97642.25;5274126;28;20191;-54
2021/09/09 01:27:22;;;;;;;13.40;12.23;;;15.50;99.90;;;16.40;87.53;97638.03;5259681;28;20552;-51
2021/09/09 01:29:55;;;;;;;14.02;12.52;;;15.50;99.90;;;16.43;87.44;97645.84;5270388;28;20200;-56
2021/09/09 01:32:28;;;;;;;13.20;12.15;;;15.50;99.90;;;16.42;87.92;97641.50;5268800;28;20215;-57
2021/09/09 01:35:01;;;;;;;13.25;12.10;;;15.50;99.90;;;16.38;88.12;97640.53;5276131;28;20607;-57
2021/09/09 01:37:34;;;;;;;14.55;13.13;;;15.60;99.90;;;16.36;87.62;97636.16;5267899;28;20196;-59
2021/09/09 01:40:11;;;;;;;13.75;12.55;;;15.50;99.90;;;16.35;87.58;97637.00;5270917;28;20680;-57
2021/09/09 01:42:44;;;;;;;13.55;12.25;;;15.50;99.90;;;16.37;88.00;97635.34;5268840;28;20228;-55
2021/09/09 01:45:17;;;;;;;13.75;12.40;;;15.50;99.90;;;16.37;88.17;97640.50;5268274;28;20199;-53
2021/09/09 01:47:50;;;;;;;13.57;12.38;;;15.50;99.90;;;16.36;87.70;97643.91;5270194;28;20200;-58
2021/09/09 01:50:23;;;;;;;13.70;12.30;;;15.50;99.90;;;16.33;88.02;97634.34;5269611;28;20204;-57
2021/09/09 01:52:56;;;;;;;13.95;12.75;;;15.40;99.90;;;16.33;88.40;97638.66;5276760;28;20222;-59
2021/09/09 01:55:31;;;;;;;14.20;12.90;;;15.40;99.90;;;16.35;87.98;97637.88;5267976;28;20222;-57
2021/09/09 01:58:04;;;;;;;13.93;12.73;;;15.50;99.90;;;16.36;88.31;97633.59;5265239;28;20227;-57
2021/09/09 02:00:37;;;;;;;14.07;12.88;;;15.50;99.90;;;16.38;88.53;97637.09;5265078;28;20692;-59
2021/09/09 02:03:10;;;;;;;13.77;12.57;;;15.50;99.90;;;16.38;87.84;97637.09;5269366;28;20237;-59
2021/09/09 02:05:43;;;;;;;13.80;12.60;;;15.50;99.90;;;16.34;88.03;97632.66;5270118;28;20229;-59
2021/09/09 02:08:16;;;;;;;13.30;12.00;;;15.40;99.90;;;16.34;87.32;97643.88;5268801;28;20192;-58
2021/09/09 02:10:50;;;;;;;12.20;11.10;;;15.40;99.90;;;16.34;86.75;97635.22;5276786;28;20219;-57
2021/09/09 02:13:23;;;;;;;12.52;11.43;;;15.40;99.90;;;16.29;86.53;97632.53;5272329;28;20227;-58
2021/09/09 02:15:56;;;;;;;12.10;11.05;;;15.30;99.90;;;16.32;86.65;97631.75;5268080;28;20211;-56
2021/09/09 02:18:29;;;;;;;12.80;11.80;;;15.30;99.90;;;16.27;86.34;97620.41;5268805;28;20202;-56
2021/09/09 02:21:03;;;;;;;12.35;11.32;;;15.30;99.90;;;16.23;85.69;97623.72;5272074;28;20199;-57
2021/09/09 02:23:36;;;;;;;12.60;11.48;;;15.10;99.90;;;16.12;86.29;97619.09;5268783;28;20195;-56
2021/09/09 02:26:11;;;;;;;12.13;11.07;;;15.10;99.90;;;16.06;86.64;97624.06;5271606;28;20196;-57
2021/09/09 02:28:44;;;;;;;13.40;12.25;;;15.00;99.90;;;16.03;87.14;97617.94;5267961;28;20218;-52
2021/09/09 02:31:17;;;;;;;12.50;11.32;;;15.00;99.90;;;15.95;87.81;97609.97;5267859;28;20200;-57
2021/09/09 02:33:50;;;;;;;13.13;11.85;;;15.00;99.90;;;15.94;87.62;97621.13;5267038;28;20246;-58
2021/09/09 02:36:23;;;;;;;13.48;12.27;;;14.90;99.90;;;15.94;87.64;97623.69;5267357;28;20657;-57
2021/09/09 02:38:56;;;;;;;14.07;12.80;;;14.90;99.90;;;15.92;88.35;97618.47;5266466;28;20223;-57
2021/09/09 02:41:30;;;;;;;12.50;11.48;;;15.00;99.90;;;15.88;88.19;97614.06;5269200;28;20216;-56
2021/09/09 02:44:04;;;;;;;13.57;12.40;;;15.00;99.90;;;15.87;88.43;97611.41;5271822;28;20507;-54
2021/09/09 02:46:37;;;;;;;13.35;12.30;;;15.00;99.90;;;15.87;88.14;97614.00;5266826;28;20204;-54
2021/09/09 02:49:10;;;;;;;14.50;13.13;;;15.00;99.90;;;15.88;88.44;97618.31;5267536;28;20203;-59
2021/09/09 02:51:43;;;;;;;13.50;12.27;;;15.00;99.90;;;15.86;87.93;97609.69;5268356;28;20218;-54
2021/09/09 02:54:17;;;;;;;12.70;11.60;;;14.90;99.90;;;15.85;88.63;97615.63;5267743;28;20220;-56
2021/09/09 02:56:51;;;;;;;13.30;12.13;;;15.00;99.90;;;15.81;88.12;97616.38;5267571;28;20192;-58
2021/09/09 02:59:24;;;;;;;13.80;12.50;;;14.90;99.90;;;15.81;88.30;97611.22;5257095;28;20196;-57
2021/09/09 03:01:57;;;;;;;14.50;13.20;;;14.90;99.90;;;15.81;88.56;97609.50;5268510;28;20220;-56
2021/09/09 03:04:31;;;;;;;13.80;12.57;;;14.90;99.90;;;15.77;89.17;97605.97;5272843;28;20682;-56
2021/09/09 03:07:04;;;;;;;13.52;12.43;;;14.90;99.90;;;15.81;88.62;97608.66;5267192;28;20214;-59
2021/09/09 03:09:37;;;;;;;13.73;12.50;;;14.90;99.90;;;15.79;88.41;97602.56;5274479;28;20197;-55
2021/09/09 03:12:12;;;;;;;13.68;12.38;;;15.00;99.90;;;15.82;88.66;97603.53;5276040;22;20223;-58
2021/09/09 03:14:45;;;;;;;13.10;11.93;;;15.00;99.90;;;15.81;88.53;97601.78;5262935;28;20273;-57
2021/09/09 03:17:18;;;;;;;13.95;12.68;;;14.90;99.90;;;15.79;88.11;97597.41;5267365;28;20203;-59
2021/09/09 03:19:51;;;;;;;13.50;12.30;;;14.90;99.90;;;15.82;88.28;97605.22;5267760;28;20278;-59
2021/09/09 03:22:24;;;;;;;13.90;12.60;;;14.90;99.90;;;15.79;88.42;97598.28;5249303;28;20225;-58
2021/09/09 03:24:57;;;;;;;13.32;12.15;;;14.90;99.90;;;15.76;88.65;97587.88;5228456;28;20197;-59
2021/09/09 03:27:31;;;;;;;13.52;12.40;;;14.90;99.90;;;15.76;88.54;97587.88;5244781;28;20211;-59
2021/09/09 03:30:07;;;;;;;13.68;12.43;;;14.90;99.90;;;15.72;88.68;97597.22;5245690;28;20199;-56
2021/09/09 03:32:40;;;;;;;13.00;11.93;;;14.90;99.90;;;15.72;88.49;97597.22;5236163;28;20248;-59
2021/09/09 03:35:13;;;;;;;14.45;13.10;;;14.90;99.90;;;15.72;88.01;97592.06;5242586;28;20219;-59
2021/09/09 03:37:46;;;;;;;13.30;12.07;;;14.80;99.90;;;15.69;88.13;97584.22;5235645;28;20208;-59
2021/09/09 03:40:19;;;;;;;13.93;12.73;;;14.80;99.90;;;15.70;88.31;97583.38;5242291;28;20193;-57
2021/09/09 03:42:53;;;;;;;14.13;12.85;;;14.80;99.90;;;15.67;87.76;97595.28;5243456;28;20617;-59
2021/09/09 03:45:26;;;;;;;12.77;11.68;;;14.70;99.90;;;15.65;87.86;97584.94;5245699;28;20198;-57
2021/09/09 03:48:00;;;;;;;13.60;12.30;;;14.70;99.90;;;15.62;88.00;97589.09;5244574;28;20287;-57
2021/09/09 03:50:33;;;;;;;13.05;11.90;;;14.70;99.90;;;15.60;87.84;97585.59;5246168;28;20657;-59
2021/09/09 03:53:06;;;;;;;13.30;12.10;;;14.60;99.90;;;15.55;87.77;97586.31;5246157;28;20222;-57
2021/09/09 03:55:39;;;;;;;13.13;11.93;;;14.60;99.90;;;15.49;87.63;97585.25;5244454;28;20216;-59
2021/09/09 03:58:14;;;;;;;12.50;11.50;;;14.60;99.90;;;15.45;87.98;97588.53;5244583;28;20220;-57
2021/09/09 04:00:47;;;;;;;13.55;12.35;;;14.50;99.90;;;15.43;88.21;97587.63;5243771;28;20452;-59
2021/09/09 04:03:20;;;;;;;13.15;12.05;;;14.50;99.90;;;15.39;88.09;97594.34;5246416;28;20240;-58
2021/09/09 04:05:53;;;;;;;12.98;11.77;;;14.50;99.90;;;15.36;88.41;97595.94;5246010;28;20193;-56
2021/09/09 04:08:26;;;;;;;13.07;12.07;;;14.50;99.90;;;15.30;88.45;97589.75;5245492;28;20691;-58
2021/09/09 04:10:59;;;;;;;12.70;11.60;;;14.40;99.90;;;15.31;88.21;97588.09;5244010;28;20199;-57
2021/09/09 04:13:34;;;;;;;15.13;13.73;;;14.40;99.90;;;15.32;88.77;97593.28;5241558;28;20234;-60
2021/09/09 04:16:07;;;;;;;14.05;12.85;;;14.50;99.90;;;15.36;89.50;97593.38;5229380;28;20677;-58
2021/09/09 04:18:40;;;;;;;15.63;14.23;;;14.50;99.90;;;15.33;89.68;97597.59;5247912;28;20665;-57
2021/09/09 04:21:13;;;;;;;16.65;14.95;;;14.50;99.90;;;15.32;90.12;97595.84;5249303;28;20572;-59
2021/09/09 04:23:46;;;;;;;14.90;13.63;;;14.50;99.90;;;15.31;90.10;97593.22;5250034;28;20262;-61
2021/09/09 04:26:19;;;;;;;14.75;13.40;;;14.50;99.90;;;15.38;89.44;97595.19;5250482;28;20192;-58
2021/09/09 04:28:53;;;;;;;13.85;12.63;;;14.50;99.90;;;15.37;90.20;97602.88;5245799;28;20208;-64
2021/09/09 04:31:26;;;;;;;13.95;12.68;;;14.50;99.90;;;15.37;89.68;97598.59;5247599;28;20192;-62
2021/09/09 04:33:59;;;;;;;13.85;12.65;;;14.50;99.90;;;15.39;89.18;97598.63;5246535;28;20279;-64
2021/09/09 04:36:32;;;;;;;13.52;12.30;;;14.50;99.90;;;15.36;89.23;97607.13;5248396;28;20220;-62
2021/09/09 04:39:06;;;;;;;13.32;12.20;;;14.50;99.90;;;15.36;88.42;97601.09;5246744;28;20200;-62
2021/09/09 04:41:39;;;;;;;13.82;12.52;;;14.40;99.90;;;15.36;88.49;97603.69;5248065;28;20697;-62
2021/09/09 04:44:13;;;;;;;12.40;11.27;;;14.40;99.90;;;15.36;88.10;97598.53;5249042;28;20665;-65
2021/09/09 04:46:46;;;;;;;12.35;11.18;;;14.40;99.90;;;15.38;87.68;97608.06;5248491;28;20203;-62
2021/09/09 04:49:20;;;;;;;13.85;12.63;;;14.40;99.90;;;15.29;87.71;97608.63;5234894;28;20667;-62
2021/09/09 04:51:53;;;;;;;13.00;11.77;;;14.30;99.90;;;15.29;87.44;97605.19;5239589;28;20224;-63
2021/09/09 04:54:26;;;;;;;14.18;12.77;;;14.30;99.90;;;15.30;87.63;97606.91;5240284;28;20193;-60
2021/09/09 04:56:59;;;;;;;12.40;11.40;;;14.30;99.90;;;15.29;87.68;97607.75;5245816;28;20217;-64
2021/09/09 04:59:38;;;;;;;14.00;12.70;;;14.30;99.90;;;15.23;87.63;97605.84;5232004;28;20197;-62
2021/09/09 05:02:11;;;;;;;13.77;12.48;;;14.30;99.90;;;15.22;88.00;97613.50;5244889;28;20212;-60
2021/09/09 05:04:44;;;;;;;13.80;12.70;;;14.30;99.90;;;15.20;88.55;97610.00;5245145;28;20193;-63
2021/09/09 05:07:17;;;;;;;13.30;12.10;;;14.30;99.90;;;15.22;88.32;97614.41;5245488;28;20200;-64
2021/09/09 05:09:50;;;;;;;13.50;12.40;;;14.30;99.90;;;15.24;88.83;97612.72;5247500;28;20201;-62
2021/09/09 05:12:23;;;;;;;14.45;13.18;;;14.40;99.90;;;15.25;88.68;97619.66;5237814;28;20236;-61
2021/09/09 05:14:58;;;;;;;13.57;12.48;;;14.40;99.90;;;15.28;88.98;97613.69;5244923;28;20647;-55
2021/09/09 05:17:31;;;;;;;14.43;13.23;;;14.40;99.90;;;15.29;89.12;97611.19;5244285;28;20228;-57
2021/09/09 05:20:06;;;;;;;14.27;13.05;;;14.40;99.90;;;15.29;89.27;97616.34;5247756;28;20211;-55
2021/09/09 05:22:41;;;;;;;13.85;12.63;;;14.50;99.90;;;15.40;89.17;97610.69;5239887;28;20212;-56
2021/09/09 05:25:14;;;;;;;14.57;13.27;;;14.60;99.90;;;15.45;89.58;97607.47;5243165;28;20684;-60
2021/09/09 05:27:47;;;;;;;14.65;13.38;;;14.60;99.90;;;15.53;89.75;97612.84;5244583;28;20227;-61
2021/09/09 05:30:22;;;;;;;14.93;13.63;;;14.70;99.90;;;15.61;89.79;97607.97;5246242;28;20203;-60
2021/09/09 05:32:55;;;;;;;13.95;12.77;;;14.80;99.90;;;15.67;88.62;97611.59;5241929;28;20963;-58
2021/09/09 05:35:28;;;;;;;13.82;12.68;;;14.80;99.90;;;15.74;88.13;97610.16;5246002;28;20203;-60
2021/09/09 05:38:02;;;;;;;14.13;12.77;;;14.80;99.90;;;15.78;88.64;97617.16;5242187;28;20203;-58
2021/09/09 05:40:35;;;;;;;13.95;12.63;;;14.90;99.90;;;15.87;87.82;97617.44;5247002;28;20567;-60
2021/09/09 05:43:08;;;;;;;12.93;11.73;;;15.00;99.90;;;15.91;88.25;97614.16;5244462;28;20220;-58
2021/09/09 05:45:43;;;;;;;13.93;12.63;;;15.00;99.90;;;16.04;86.51;97615.41;5245067;28;20204;-59
2021/09/09 05:48:16;;;;;;;12.65;11.55;;;15.10;99.90;;;16.09;86.22;97616.44;5242238;28;20203;-59
2021/09/09 05:50:49;;;;;;;13.07;11.95;;;15.10;99.90;;;16.12;85.84;97618.22;5244825;28;20196;-59
2021/09/09 05:53:22;;;;;;;13.30;11.93;;;15.00;99.90;;;16.08;86.28;97608.63;5239536;28;20212;-59
2021/09/09 05:55:55;;;;;;;12.38;11.40;;;15.00;99.90;;;16.10;86.28;97620.75;5246027;28;20216;-61
2021/09/09 05:58:28;;;;;;;13.30;12.23;;;15.00;99.90;;;16.07;86.74;97624.94;5246399;28;20200;-58
2021/09/09 06:01:03;;;;;;;13.05;11.82;;;15.00;99.90;;;16.02;86.83;97621.34;5248524;28;20672;-60
2021/09/09 06:03:36;;;;;;;12.50;11.43;;;15.00;99.90;;;16.12;86.69;97621.69;5244286;28;20630;-60
2021/09/09 06:06:11;;;;;;;13.27;12.13;;;15.10;99.90;;;16.28;86.48;97620.47;5247775;28;20642;-60
2021/09/09 06:08:45;;;;;;;14.60;13.25;;;15.30;99.90;;;16.41;87.19;97616.53;5241283;28;20203;-61
2021/09/09 06:11:18;;;;;;;13.63;12.50;;;15.50;99.90;;;16.60;85.68;97624.00;5233250;28;20193;-61
2021/09/09 06:13:51;;;;;;;14.18;12.93;;;15.70;99.90;;;16.86;84.91;97617.06;5245071;28;20236;-57
2021/09/09 06:16:25;;;;;;;14.02;12.82;;;15.90;99.90;;;17.09;83.43;97629.72;5245157;28;20321;-59
2021/09/09 06:18:59;;;;;;;13.68;12.38;;;16.10;99.90;;;17.30;82.31;97625.13;5246238;28;20665;-60
2021/09/09 06:21:32;;;;;;;13.77;12.43;;;16.30;99.90;;;17.69;80.66;97620.97;5246156;28;20296;-60
2021/09/09 06:24:06;;;;;;;13.77;12.48;;;16.60;99.90;;;18.20;78.13;97628.28;5235473;28;20204;-61
2021/09/09 06:26:39;;;;;;;13.57;12.27;;;16.90;99.90;;;18.72;77.03;97631.16;5234579;28;20195;-60
2021/09/09 06:29:13;;;;;;;13.43;12.32;;;17.20;99.90;;;19.18;74.46;97629.53;5245820;28;20207;-59
2021/09/09 06:31:47;;;;;;;12.85;11.75;;;17.60;99.90;;;19.54;71.69;97626.72;5239389;28;20221;-60
2021/09/09 06:34:20;;;;;;;13.52;12.27;;;17.90;99.90;;;19.84;71.21;97622.97;5244063;28;20195;-60
2021/09/09 06:36:53;;;;;;;13.32;12.23;;;18.10;99.90;;;20.08;69.56;97633.75;5242817;28;20221;-60
2021/09/09 06:39:26;;;;;;;13.65;12.32;;;18.40;99.90;;;20.34;68.52;97625.47;5238386;28;20300;-59
2021/09/09 06:41:59;;;;;;;12.73;11.43;;;18.60;99.90;;;20.57;67.64;97618.91;5239116;28;20228;-56
2021/09/09 06:44:32;;;;;;;12.77;11.55;;;18.80;99.90;;;20.82;66.91;97621.84;5238293;28;20211;-57
2021/09/09 06:47:07;;;;;;;13.18;12.02;;;19.10;99.90;;;21.13;66.32;97623.97;5246227;28;20540;-57
2021/09/09 06:49:40;;;;;;;13.20;12.00;;;19.30;99.90;;;21.55;64.47;97629.66;5244526;28;20673;-60
2021/09/09 06:52:13;;;;;;;12.38;11.30;;;19.50;99.90;;;22.08;62.80;97630.97;5235081;28;20213;-58
2021/09/09 06:54:47;;;;;;;14.10;12.90;;;19.70;99.90;;;22.24;61.73;97622.47;5246172;28;20629;-59
2021/09/09 06:57:20;;;;;;;13.93;12.65;;;19.90;99.90;;;22.12;61.10;97628.41;5246538;28;20216;-60
2021/09/09 06:59:54;;;;;;;14.15;12.88;;;19.90;99.90;;;22.15;61.37;97627.53;5236543;28;20200;-59
2021/09/09 07:02:28;;;;;;;13.32;12.20;;;19.90;99.90;;;22.29;61.24;97631.19;5242056;28;20302;-61
2021/09/09 07:05:02;;;;;;;13.23;11.80;;;20.00;99.90;;;22.79;60.37;97628.00;5241383;28;20667;-57
2021/09/09 07:07:35;;;;;;;13.48;12.38;;;20.20;99.90;;;23.30;58.58;97638.66;5245635;28;20235;-58
2021/09/09 07:10:09;;;;;;;13.88;12.65;;;20.50;99.90;;;23.23;58.63;97629.06;5243176;28;20199;-62
2021/09/09 07:12:42;;;;;;;13.98;12.65;;;20.70;99.90;;;23.81;56.41;97624.88;5232157;28;20263;-60
2021/09/09 07:15:15;;;;;;;12.90;11.70;;;21.00;99.90;;;23.85;57.04;97640.53;5235300;28;20546;-60
2021/09/09 07:17:50;;;;;;;13.63;12.35;;;21.20;99.90;;;23.86;57.03;97637.91;5240920;28;20232;-57
2021/09/09 07:20:23;;;;;;;12.20;11.07;;;21.40;99.90;;;23.67;57.66;97633.53;5243920;28;20242;-61
2021/09/09 07:22:56;;;;;;;13.57;12.45;;;21.60;99.90;;;23.60;57.93;97636.09;5236525;28;20595;-61
2021/09/09 07:25:29;;;;;;;13.48;12.32;;;21.70;99.90;;;23.61;58.81;97630.03;5242160;28;20197;-61
2021/09/09 07:28:03;;;;;;;13.43;12.32;;;21.70;99.90;;;23.61;58.73;97621.34;5237845;28;20195;-59
2021/09/09 07:30:36;;;;;;;13.32;12.15;;;21.90;99.90;;;23.54;58.97;97627.41;5245981;28;20958;-61
2021/09/09 07:33:11;;;;;;;12.95;11.73;;;22.00;99.90;;;23.78;58.54;97630.09;5237183;28;20669;-62
2021/09/09 07:35:44;;;;;;;14.43;13.02;;;22.30;99.90;;;24.09;57.89;97635.31;5241036;28;20792;-61
2021/09/09 07:38:17;;;;;;;13.38;12.07;;;22.40;99.90;;;23.88;57.80;97635.31;5245495;28;20216;-58
2021/09/09 07:40:50;;;;;;;14.15;12.88;;;22.30;99.90;;;23.98;58.21;97632.72;5243567;28;20205;-61
2021/09/09 07:43:23;;;;;;;13.07;11.88;;;22.50;99.90;;;24.28;57.64;97626.59;5238874;28;20216;-61
2021/09/09 07:45:56;;;;;;;14.05;12.88;;;22.80;99.90;;;24.34;57.45;97633.56;5244675;28;20204;-60
2021/09/09 07:48:31;;;;;;;12.85;11.75;;;23.10;99.90;;;24.64;57.02;97645.75;5244309;28;20200;-59
2021/09/09 07:51:04;;;;;;;13.10;12.00;;;23.40;99.90;;;24.85;56.36;97634.34;5244128;28;20196;-62
2021/09/09 07:53:37;;;;;;;13.05;11.90;;;23.60;99.90;;;25.03;56.23;97638.63;5243537;28;20212;-58
2021/09/09 07:56:10;;;;;;;13.25;12.18;;;23.80;99.90;;;25.27;55.70;97647.31;5235484;28;20580;-61
2021/09/09 07:58:48;;;;;;;12.95;11.90;;;24.00;99.90;;;25.30;55.01;97642.06;5243033;28;20216;-59
2021/09/09 08:01:22;;;;;;;12.98;11.82;;;24.10;99.90;;;25.42;55.70;97644.59;5241027;28;20204;-59
2021/09/09 08:03:57;;;;;;;13.02;11.88;;;24.20;99.90;;;25.68;55.21;97644.44;5236980;28;20200;-62
2021/09/09 08:06:30;;;;;;;12.63;11.43;;;24.40;99.90;;;25.75;54.68;97651.34;5239791;28;20203;-62
2021/09/09 08:09:03;;;;;;;12.70;11.70;;;24.70;99.90;;;26.01;54.12;97648.63;5243882;28;20582;-61
2021/09/09 08:11:37;;;;;;;12.15;11.05;;;24.90;99.90;;;26.12;53.88;97652.88;5243177;28;20204;-62
2021/09/09 08:14:10;;;;;;;13.63;12.43;;;25.00;99.90;;;26.22;53.03;97644.06;5243500;28;20196;-62
2021/09/09 08:16:43;;;;;;;11.63;10.70;;;25.10;99.90;;;26.22;52.99;97646.69;5237632;28;20192;-61
2021/09/09 08:19:17;;;;;;;10.80;9.80;;;25.10;99.90;;;26.31;53.42;97644.00;5239106;28;20253;-61
2021/09/09 08:21:50;;;;;;;11.90;10.90;;;25.30;99.90;;;26.51;52.92;97646.44;5238374;28;20235;-61
2021/09/09 08:24:23;;;;;;;12.32;11.23;;;25.50;99.90;;;26.59;52.70;97651.63;5239890;28;20196;-62
2021/09/09 08:26:56;;;;;;;12.23;11.13;;;25.60;99.90;;;26.83;51.27;97648.72;5231323;28;20208;-62
2021/09/09 08:29:29;;;;;;;11.57;10.48;;;25.90;99.70;;;26.92;50.36;97650.38;5234560;28;20200;-61
2021/09/09 08:32:03;;;;;;;10.60;9.70;;;25.90;98.90;;;27.04;49.96;97638.88;5241891;28;20216;-59
2021/09/09 08:34:37;;;;;;;12.02;10.75;;;26.10;98.50;;;27.18;50.50;97652.72;5241132;28;20574;-59
2021/09/09 08:37:10;;;;;;;11.27;10.15;;;26.40;98.80;;;27.46;49.30;97647.97;5246382;28;20278;-60
2021/09/09 08:39:43;;;;;;;11.73;10.75;;;26.50;98.20;;;27.59;49.02;97659.22;5246253;28;20204;-60
2021/09/09 08:42:17;;;;;;;10.35;9.55;;;26.60;98.10;;;27.61;48.54;97652.16;5246421;28;20721;-58
2021/09/09 08:44:50;;;;;;;10.48;9.65;;;26.70;97.90;;;27.70;49.29;97648.53;5244764;28;20206;-60
2021/09/09 08:47:25;;;;;;;10.65;9.40;;;26.80;98.00;;;27.81;47.57;97663.28;5245600;28;20207;-60
2021/09/09 08:49:59;;;;;;;10.60;9.60;;;26.90;96.50;;;28.00;46.67;97660.38;5242790;28;20664;-57
2021/09/09 08:52:32;;;;;;;10.60;9.60;;;27.00;96.30;;;28.02;45.39;97662.09;5240396;28;20537;-57
2021/09/09 08:55:07;;;;;;;10.05;9.15;;;26.80;96.00;;;28.00;46.54;97663.00;5238047;28;20196;-59
2021/09/09 08:57:42;;;;;;;9.45;8.75;;;26.80;96.30;;;28.15;46.26;97665.38;5242552;28;20211;-60
2021/09/09 09:00:16;;;;;;;9.85;8.88;;;27.10;95.70;;;28.26;46.39;97660.81;5239644;28;20202;-59
2021/09/09 09:02:54;;;;;;;10.20;9.20;;;27.30;96.30;;;28.49;44.40;97664.84;5244495;28;20220;-57
2021/09/09 09:05:29;;;;;;;8.98;8.18;;;27.30;94.80;;;28.44;44.00;97666.69;5239958;28;20200;-57
2021/09/09 09:08:05;;;;;;;9.23;8.38;;;27.20;94.80;;;28.48;44.84;97657.84;5247854;28;20195;-59
2021/09/09 09:10:38;;;;;;;10.13;9.23;;;27.30;94.90;;;28.47;45.52;97670.16;5239788;28;20223;-60
2021/09/09 09:13:12;;;;;;;9.30;8.27;;;27.30;95.30;;;28.38;44.86;97672.00;5243722;28;20719;-62
2021/09/09 09:15:48;;;;;;;8.75;7.97;;;27.10;94.90;;;28.42;45.06;97668.50;5240837;28;20204;-61
2021/09/09 09:18:21;;;;;;;9.13;8.18;;;27.20;95.00;;;28.43;44.42;97671.06;5248072;28;20220;-61
2021/09/09 09:20:56;;;;;;;8.00;7.30;;;27.40;94.70;;;28.55;42.94;97667.34;5241554;28;20295;-61
2021/09/09 09:23:29;;;;;;;8.57;7.70;;;27.40;93.60;;;28.30;43.08;97667.78;5250810;28;20223;-60
2021/09/09 09:26:05;;;;;;;7.82;7.15;;;27.20;93.50;;;28.20;42.71;97674.06;5247344;28;20218;-61
2021/09/09 09:28:42;;;;;;;8.23;7.53;;;26.90;93.70;;;28.19;42.98;97677.59;5251122;28;20279;-61
2021/09/09 09:31:18;;;;;;;8.63;7.88;;;26.80;93.30;;;28.08;44.00;97664.63;5239910;28;20210;-61
2021/09/09 09:33:55;;;;;;;8.35;7.63;;;27.00;93.80;;;28.22;43.59;97667.03;5238555;28;20737;-60
2021/09/09 09:36:32;;;;;;;8.70;7.93;;;27.20;93.50;;;28.30;43.43;97665.13;5237107;28;20210;-60
2021/09/09 09:39:21;;;;;;;8.45;7.75;;;27.20;93.40;;;28.45;43.31;97668.44;5244447;28;20204;-60
2021/09/09 09:42:00;;;;;;;8.30;7.60;;;27.40;93.30;;;28.60;43.17;97670.78;5243022;28;20228;-61
2021/09/09 09:44:36;;;;;;;8.40;7.70;;;27.60;93.10;;;28.70;42.88;97660.94;5246855;28;20196;-60
2021/09/09 09:47:12;;;;;;;7.88;7.13;;;27.70;93.30;;;28.79;42.69;97667.78;5241919;28;20196;-61
2021/09/09 09:49:47;;;;;;;8.63;7.93;;;27.80;92.90;;;28.76;42.88;97671.38;5244842;28;20200;-60
2021/09/09 09:52:26;;;;;;;8.40;7.72;;;27.80;92.60;;;28.82;42.42;97676.53;5237183;28;20212;-61
2021/09/09 09:55:03;;;;;;;8.48;7.82;;;27.80;92.70;;;28.80;43.23;97664.28;5248350;28;20195;-61
2021/09/09 09:57:52;;;;;;;7.78;7.10;;;27.80;93.30;;;28.56;43.63;97666.47;5240041;28;20197;-61
2021/09/09 10:00:25;;;;;;;8.45;7.75;;;27.40;93.30;;;28.31;43.89;97676.50;5245130;28;20585;-61
2021/09/09 10:03:02;;;;;;;8.55;7.95;;;27.20;93.50;;;28.23;44.17;97673.16;5245425;28;20767;-61
2021/09/09 10:05:38;;;;;;;8.77;7.95;;;27.00;93.70;;;28.21;44.61;97677.56;5239425;28;20196;-60
2021/09/09 10:08:12;;;;;;;8.05;7.35;;;26.80;94.40;;;28.05;45.01;97669.91;5236756;28;20230;-61
2021/09/09 10:10:48;;;;;;;8.30;7.72;;;26.70;94.60;;;28.02;44.38;97671.72;5246042;28;20204;-61
2021/09/09 10:13:21;;;;;;;8.35;7.60;;;26.80;94.10;;;28.14;44.37;97674.16;5236745;28;20220;-61
2021/09/09 10:15:54;;;;;;;8.32;7.63;;;26.90;94.00;;;28.22;45.18;97672.28;5237421;28;20249;-60
2021/09/09 10:18:27;;;;;;;8.45;7.75;;;26.90;94.50;;;28.24;44.86;97662.63;5240340;28;20231;-61
2021/09/09 10:21:02;;;;;;;8.15;7.45;;;26.90;94.20;;;28.26;44.62;97663.44;5248599;28;20218;-61
2021/09/09 10:23:37;;;;;;;8.82;8.05;;;27.00;94.30;;;28.35;44.67;97666.81;5242751;28;20733;-61
2021/09/09 10:26:28;;;;;;;7.85;7.13;;;27.10;94.50;;;28.52;45.64;97662.16;5240103;28;20282;-60
2021/09/09 10:29:01;;;;;;;8.02;7.43;;;27.40;94.60;;;28.60;44.92;97657.63;5239491;28;20192;-61
2021/09/09 10:31:40;;;;;;;8.20;7.40;;;27.40;94.40;;;28.74;44.06;97660.88;5245978;28;20196;-59
2021/09/09 10:34:24;;;;;;;8.55;7.70;;;27.30;94.40;;;28.68;45.01;97663.63;5241081;28;20192;-61